Gilman Hot Springs, California
Current Conditions -  °F | °C
As of 1:35 AM on Thursday 18 Dec 2014 (Local Time) from KF70 Reporting Station
Clear Clear  
Wind Chill: 46°   Ceiling: Unl
Heat Index: 46°   Visibility: 10mi
Dew Point: 43°   Wind: 0mph
Humidity: 87%   Direction: NA
Pressure: 30.11"   Gusts: NA
Location:  33.7938°N, 116.92°W
Report Text: KF70 180935Z AUTO 00000KT 10SM CLR 08/06 A3011 RMK AO1
Loading
Personal Weather Stations






























Interactive Weather Map New forecast layout! Learn more

10-Day Weather Forecast

Advertisements
Track Severe Weather on mobile